sensor_id;sensor_type;location;lat;lon;timestamp;P1;durP1;ratioP1;P2;durP2;ratioP2
21192;SDS011;10754;51.106;7.164;2022-07-10T00:01:15;2.03;;;0.85;;
21192;SDS011;10754;51.106;7.164;2022-07-10T00:03:41;3.10;;;1.00;;
21192;SDS011;10754;51.106;7.164;2022-07-10T00:06:09;4.18;;;1.00;;
21192;SDS011;10754;51.106;7.164;2022-07-10T00:08:35;5.65;;;1.17;;
21192;SDS011;10754;51.106;7.164;2022-07-10T00:11:00;4.13;;;1.25;;
21192;SDS011;10754;51.106;7.164;2022-07-10T00:13:26;1.38;;;0.75;;
21192;SDS011;10754;51.106;7.164;2022-07-10T00:15:51;3.00;;;1.00;;
21192;SDS011;10754;51.106;7.164;2022-07-10T00:18:17;2.90;;;0.93;;
21192;SDS011;10754;51.106;7.164;2022-07-10T00:20:42;1.98;;;0.80;;
21192;SDS011;10754;51.106;7.164;2022-07-10T00:23:08;2.45;;;1.25;;
21192;SDS011;10754;51.106;7.164;2022-07-10T00:25:33;3.88;;;0.77;;
21192;SDS011;10754;51.106;7.164;2022-07-10T00:27:59;2.50;;;0.85;;
21192;SDS011;10754;51.106;7.164;2022-07-10T00:30:25;2.15;;;0.77;;
21192;SDS011;10754;51.106;7.164;2022-07-10T00:32:51;2.03;;;0.88;;
21192;SDS011;10754;51.106;7.164;2022-07-10T00:35:17;2.20;;;0.70;;
21192;SDS011;10754;51.106;7.164;2022-07-10T00:37:42;1.70;;;0.70;;
21192;SDS011;10754;51.106;7.164;2022-07-10T00:40:08;2.17;;;0.70;;
21192;SDS011;10754;51.106;7.164;2022-07-10T00:42:33;3.65;;;0.90;;
21192;SDS011;10754;51.106;7.164;2022-07-10T00:44:59;2.83;;;0.98;;
21192;SDS011;10754;51.106;7.164;2022-07-10T00:47:24;3.13;;;0.90;;
21192;SDS011;10754;51.106;7.164;2022-07-10T00:49:50;1.77;;;0.60;;
21192;SDS011;10754;51.106;7.164;2022-07-10T00:52:16;2.97;;;1.20;;
21192;SDS011;10754;51.106;7.164;2022-07-10T00:54:44;2.42;;;0.80;;
21192;SDS011;10754;51.106;7.164;2022-07-10T00:57:13;1.88;;;0.68;;
21192;SDS011;10754;51.106;7.164;2022-07-10T00:59:42;2.40;;;0.93;;
21192;SDS011;10754;51.106;7.164;2022-07-10T01:02:08;3.25;;;0.80;;
21192;SDS011;10754;51.106;7.164;2022-07-10T01:04:35;1.92;;;0.80;;
21192;SDS011;10754;51.106;7.164;2022-07-10T01:07:00;2.95;;;0.88;;
21192;SDS011;10754;51.106;7.164;2022-07-10T01:09:27;3.65;;;0.63;;
21192;SDS011;10754;51.106;7.164;2022-07-10T01:11:59;1.55;;;0.80;;
21192;SDS011;10754;51.106;7.164;2022-07-10T01:14:27;2.17;;;1.00;;
21192;SDS011;10754;51.106;7.164;2022-07-10T01:16:54;1.50;;;0.77;;
21192;SDS011;10754;51.106;7.164;2022-07-10T01:19:20;4.38;;;1.13;;
21192;SDS011;10754;51.106;7.164;2022-07-10T01:21:45;5.10;;;1.00;;
21192;SDS011;10754;51.106;7.164;2022-07-10T01:24:11;2.28;;;0.70;;
21192;SDS011;10754;51.106;7.164;2022-07-10T01:26:37;3.80;;;0.82;;
21192;SDS011;10754;51.106;7.164;2022-07-10T01:29:07;2.65;;;1.20;;
21192;SDS011;10754;51.106;7.164;2022-07-10T01:31:34;2.50;;;0.80;;
21192;SDS011;10754;51.106;7.164;2022-07-10T01:34:00;1.95;;;0.90;;
21192;SDS011;10754;51.106;7.164;2022-07-10T01:36:27;2.83;;;0.88;;
21192;SDS011;10754;51.106;7.164;2022-07-10T01:38:54;2.67;;;0.90;;
21192;SDS011;10754;51.106;7.164;2022-07-10T01:41:20;3.67;;;0.60;;
21192;SDS011;10754;51.106;7.164;2022-07-10T01:43:46;2.83;;;0.90;;
21192;SDS011;10754;51.106;7.164;2022-07-10T01:46:13;2.35;;;0.82;;
21192;SDS011;10754;51.106;7.164;2022-07-10T01:48:39;3.53;;;1.00;;
21192;SDS011;10754;51.106;7.164;2022-07-10T01:51:05;2.47;;;0.85;;
21192;SDS011;10754;51.106;7.164;2022-07-10T01:53:31;1.52;;;0.68;;
21192;SDS011;10754;51.106;7.164;2022-07-10T01:55:58;1.60;;;0.70;;
21192;SDS011;10754;51.106;7.164;2022-07-10T01:58:25;2.55;;;0.75;;
21192;SDS011;10754;51.106;7.164;2022-07-10T02:00:51;1.38;;;0.55;;
21192;SDS011;10754;51.106;7.164;2022-07-10T02:03:16;3.42;;;1.02;;
21192;SDS011;10754;51.106;7.164;2022-07-10T02:06:00;3.55;;;0.82;;
21192;SDS011;10754;51.106;7.164;2022-07-10T02:08:26;1.67;;;0.68;;
21192;SDS011;10754;51.106;7.164;2022-07-10T02:10:51;2.80;;;0.80;;
21192;SDS011;10754;51.106;7.164;2022-07-10T02:13:17;2.10;;;0.80;;
21192;SDS011;10754;51.106;7.164;2022-07-10T02:15:45;2.58;;;1.10;;
21192;SDS011;10754;51.106;7.164;2022-07-10T02:18:14;1.67;;;0.60;;
21192;SDS011;10754;51.106;7.164;2022-07-10T02:20:40;1.90;;;0.75;;
21192;SDS011;10754;51.106;7.164;2022-07-10T02:23:05;2.33;;;0.77;;
21192;SDS011;10754;51.106;7.164;2022-07-10T02:25:32;3.10;;;0.90;;
21192;SDS011;10754;51.106;7.164;2022-07-10T02:27:58;3.00;;;1.17;;
21192;SDS011;10754;51.106;7.164;2022-07-10T02:30:23;1.58;;;0.77;;
21192;SDS011;10754;51.106;7.164;2022-07-10T02:32:49;1.77;;;0.90;;
21192;SDS011;10754;51.106;7.164;2022-07-10T02:35:14;1.45;;;0.65;;
21192;SDS011;10754;51.106;7.164;2022-07-10T02:37:40;2.47;;;0.80;;
21192;SDS011;10754;51.106;7.164;2022-07-10T02:40:06;1.90;;;0.82;;
21192;SDS011;10754;51.106;7.164;2022-07-10T02:42:32;2.17;;;0.90;;
21192;SDS011;10754;51.106;7.164;2022-07-10T02:44:57;4.97;;;1.10;;
21192;SDS011;10754;51.106;7.164;2022-07-10T02:47:23;1.77;;;0.75;;
21192;SDS011;10754;51.106;7.164;2022-07-10T02:49:48;2.10;;;0.98;;
21192;SDS011;10754;51.106;7.164;2022-07-10T02:52:14;2.65;;;0.60;;
21192;SDS011;10754;51.106;7.164;2022-07-10T02:54:40;2.60;;;1.00;;
21192;SDS011;10754;51.106;7.164;2022-07-10T02:57:05;1.80;;;0.80;;
21192;SDS011;10754;51.106;7.164;2022-07-10T02:59:31;2.17;;;0.90;;
21192;SDS011;10754;51.106;7.164;2022-07-10T03:01:56;2.45;;;0.77;;
21192;SDS011;10754;51.106;7.164;2022-07-10T03:04:22;1.30;;;0.73;;
21192;SDS011;10754;51.106;7.164;2022-07-10T03:06:47;4.05;;;0.63;;
21192;SDS011;10754;51.106;7.164;2022-07-10T03:09:13;2.13;;;0.90;;
21192;SDS011;10754;51.106;7.164;2022-07-10T03:11:38;3.53;;;0.77;;
21192;SDS011;10754;51.106;7.164;2022-07-10T03:14:04;1.67;;;0.70;;
21192;SDS011;10754;51.106;7.164;2022-07-10T03:16:30;2.15;;;0.68;;
21192;SDS011;10754;51.106;7.164;2022-07-10T03:18:56;2.03;;;0.60;;
21192;SDS011;10754;51.106;7.164;2022-07-10T03:21:22;2.53;;;0.77;;
21192;SDS011;10754;51.106;7.164;2022-07-10T03:23:48;1.40;;;0.45;;
21192;SDS011;10754;51.106;7.164;2022-07-10T03:26:13;1.80;;;0.70;;
21192;SDS011;10754;51.106;7.164;2022-07-10T03:28:39;1.77;;;0.70;;
21192;SDS011;10754;51.106;7.164;2022-07-10T03:31:04;4.20;;;1.10;;
21192;SDS011;10754;51.106;7.164;2022-07-10T03:33:30;2.88;;;0.70;;
21192;SDS011;10754;51.106;7.164;2022-07-10T03:35:55;1.73;;;0.90;;
21192;SDS011;10754;51.106;7.164;2022-07-10T03:38:21;3.70;;;0.95;;
21192;SDS011;10754;51.106;7.164;2022-07-10T03:40:46;2.78;;;0.63;;
21192;SDS011;10754;51.106;7.164;2022-07-10T03:43:13;1.77;;;0.50;;
21192;SDS011;10754;51.106;7.164;2022-07-10T03:45:39;2.22;;;0.70;;
21192;SDS011;10754;51.106;7.164;2022-07-10T03:48:04;3.45;;;0.95;;
21192;SDS011;10754;51.106;7.164;2022-07-10T03:50:30;3.22;;;0.98;;
21192;SDS011;10754;51.106;7.164;2022-07-10T03:52:56;3.10;;;0.85;;
21192;SDS011;10754;51.106;7.164;2022-07-10T03:55:21;1.92;;;0.75;;
21192;SDS011;10754;51.106;7.164;2022-07-10T03:57:47;2.15;;;0.95;;
21192;SDS011;10754;51.106;7.164;2022-07-10T04:00:18;2.47;;;0.85;;
21192;SDS011;10754;51.106;7.164;2022-07-10T04:02:44;1.63;;;0.75;;
21192;SDS011;10754;51.106;7.164;2022-07-10T04:05:09;1.33;;;0.60;;
21192;SDS011;10754;51.106;7.164;2022-07-10T04:07:36;1.83;;;0.73;;
21192;SDS011;10754;51.106;7.164;2022-07-10T04:10:02;1.17;;;0.70;;
21192;SDS011;10754;51.106;7.164;2022-07-10T04:12:28;1.45;;;0.85;;
21192;SDS011;10754;51.106;7.164;2022-07-10T04:14:54;1.58;;;0.70;;
21192;SDS011;10754;51.106;7.164;2022-07-10T04:17:21;2.10;;;0.90;;
21192;SDS011;10754;51.106;7.164;2022-07-10T04:19:46;1.60;;;0.80;;
21192;SDS011;10754;51.106;7.164;2022-07-10T04:22:12;3.83;;;1.17;;
21192;SDS011;10754;51.106;7.164;2022-07-10T04:24:37;1.95;;;0.70;;
21192;SDS011;10754;51.106;7.164;2022-07-10T04:27:03;1.27;;;0.65;;
21192;SDS011;10754;51.106;7.164;2022-07-10T04:29:29;1.27;;;0.55;;
21192;SDS011;10754;51.106;7.164;2022-07-10T04:31:54;2.58;;;1.00;;
21192;SDS011;10754;51.106;7.164;2022-07-10T04:34:20;0.90;;;0.55;;
21192;SDS011;10754;51.106;7.164;2022-07-10T04:36:45;2.00;;;0.80;;
21192;SDS011;10754;51.106;7.164;2022-07-10T04:39:11;1.95;;;0.70;;
21192;SDS011;10754;51.106;7.164;2022-07-10T04:41:37;1.90;;;0.65;;
21192;SDS011;10754;51.106;7.164;2022-07-10T04:44:02;1.50;;;0.80;;
21192;SDS011;10754;51.106;7.164;2022-07-10T04:46:28;2.33;;;0.57;;
21192;SDS011;10754;51.106;7.164;2022-07-10T04:48:54;1.70;;;0.75;;
21192;SDS011;10754;51.106;7.164;2022-07-10T04:51:19;1.80;;;0.70;;
21192;SDS011;10754;51.106;7.164;2022-07-10T04:53:45;1.77;;;0.60;;
21192;SDS011;10754;51.106;7.164;2022-07-10T04:56:10;1.30;;;0.60;;
21192;SDS011;10754;51.106;7.164;2022-07-10T04:58:36;1.35;;;0.70;;
21192;SDS011;10754;51.106;7.164;2022-07-10T05:01:01;3.97;;;0.90;;
21192;SDS011;10754;51.106;7.164;2022-07-10T05:03:30;2.90;;;1.08;;
21192;SDS011;10754;51.106;7.164;2022-07-10T05:05:55;2.05;;;0.80;;
21192;SDS011;10754;51.106;7.164;2022-07-10T05:08:21;4.70;;;0.98;;
21192;SDS011;10754;51.106;7.164;2022-07-10T05:10:46;2.10;;;0.70;;
21192;SDS011;10754;51.106;7.164;2022-07-10T05:13:12;2.03;;;0.88;;
21192;SDS011;10754;51.106;7.164;2022-07-10T05:15:38;2.22;;;0.98;;
21192;SDS011;10754;51.106;7.164;2022-07-10T05:18:03;3.17;;;1.00;;
21192;SDS011;10754;51.106;7.164;2022-07-10T05:20:29;4.18;;;0.95;;
21192;SDS011;10754;51.106;7.164;2022-07-10T05:22:55;2.63;;;1.15;;
21192;SDS011;10754;51.106;7.164;2022-07-10T05:25:21;1.95;;;1.05;;
21192;SDS011;10754;51.106;7.164;2022-07-10T05:27:46;3.55;;;1.10;;
21192;SDS011;10754;51.106;7.164;2022-07-10T05:30:12;2.28;;;1.20;;
21192;SDS011;10754;51.106;7.164;2022-07-10T05:32:44;3.05;;;1.25;;
21192;SDS011;10754;51.106;7.164;2022-07-10T05:35:10;5.03;;;1.30;;
21192;SDS011;10754;51.106;7.164;2022-07-10T05:37:36;4.03;;;1.17;;
21192;SDS011;10754;51.106;7.164;2022-07-10T05:40:02;6.97;;;1.42;;
21192;SDS011;10754;51.106;7.164;2022-07-10T05:42:28;4.15;;;1.40;;
21192;SDS011;10754;51.106;7.164;2022-07-10T05:44:54;4.57;;;1.50;;
21192;SDS011;10754;51.106;7.164;2022-07-10T05:47:19;3.63;;;1.08;;
21192;SDS011;10754;51.106;7.164;2022-07-10T05:49:45;5.63;;;1.75;;
21192;SDS011;10754;51.106;7.164;2022-07-10T05:52:10;5.20;;;1.65;;
21192;SDS011;10754;51.106;7.164;2022-07-10T05:54:36;3.42;;;1.58;;
21192;SDS011;10754;51.106;7.164;2022-07-10T05:57:01;4.20;;;1.70;;
21192;SDS011;10754;51.106;7.164;2022-07-10T05:59:27;3.72;;;1.67;;
21192;SDS011;10754;51.106;7.164;2022-07-10T06:01:52;3.55;;;1.48;;
21192;SDS011;10754;51.106;7.164;2022-07-10T06:04:18;6.30;;;1.48;;
21192;SDS011;10754;51.106;7.164;2022-07-10T06:06:43;3.75;;;1.25;;
21192;SDS011;10754;51.106;7.164;2022-07-10T06:09:09;4.32;;;1.60;;
21192;SDS011;10754;51.106;7.164;2022-07-10T06:11:34;5.07;;;1.33;;
21192;SDS011;10754;51.106;7.164;2022-07-10T06:14:00;4.13;;;1.50;;
21192;SDS011;10754;51.106;7.164;2022-07-10T06:16:25;3.88;;;1.60;;
21192;SDS011;10754;51.106;7.164;2022-07-10T06:18:51;4.82;;;1.75;;
21192;SDS011;10754;51.106;7.164;2022-07-10T06:21:16;4.15;;;1.10;;
21192;SDS011;10754;51.106;7.164;2022-07-10T06:23:46;4.25;;;1.30;;
21192;SDS011;10754;51.106;7.164;2022-07-10T06:26:12;5.47;;;1.67;;
21192;SDS011;10754;51.106;7.164;2022-07-10T06:28:37;4.57;;;1.35;;
21192;SDS011;10754;51.106;7.164;2022-07-10T06:31:04;4.68;;;2.00;;
21192;SDS011;10754;51.106;7.164;2022-07-10T06:33:30;6.82;;;1.63;;
21192;SDS011;10754;51.106;7.164;2022-07-10T06:35:57;4.38;;;1.48;;
21192;SDS011;10754;51.106;7.164;2022-07-10T06:38:23;5.07;;;1.70;;
21192;SDS011;10754;51.106;7.164;2022-07-10T06:40:48;5.57;;;1.73;;
21192;SDS011;10754;51.106;7.164;2022-07-10T06:43:15;3.72;;;1.38;;
21192;SDS011;10754;51.106;7.164;2022-07-10T06:45:41;3.15;;;1.15;;
21192;SDS011;10754;51.106;7.164;2022-07-10T06:48:06;4.03;;;1.45;;
21192;SDS011;10754;51.106;7.164;2022-07-10T06:50:33;4.55;;;1.50;;
21192;SDS011;10754;51.106;7.164;2022-07-10T06:52:59;3.30;;;1.20;;
21192;SDS011;10754;51.106;7.164;2022-07-10T06:55:26;3.95;;;1.50;;
21192;SDS011;10754;51.106;7.164;2022-07-10T06:57:52;3.45;;;1.40;;
21192;SDS011;10754;51.106;7.164;2022-07-10T07:00:18;4.00;;;1.33;;
21192;SDS011;10754;51.106;7.164;2022-07-10T07:02:44;3.53;;;1.80;;
21192;SDS011;10754;51.106;7.164;2022-07-10T07:05:10;4.55;;;1.45;;
21192;SDS011;10754;51.106;7.164;2022-07-10T07:07:35;5.13;;;1.55;;
21192;SDS011;10754;51.106;7.164;2022-07-10T07:10:01;5.32;;;1.90;;
21192;SDS011;10754;51.106;7.164;2022-07-10T07:12:28;4.95;;;1.65;;
21192;SDS011;10754;51.106;7.164;2022-07-10T07:14:54;5.50;;;1.63;;
21192;SDS011;10754;51.106;7.164;2022-07-10T07:17:19;2.65;;;1.13;;
21192;SDS011;10754;51.106;7.164;2022-07-10T07:19:50;3.53;;;1.48;;
21192;SDS011;10754;51.106;7.164;2022-07-10T07:22:35;2.60;;;1.10;;
21192;SDS011;10754;51.106;7.164;2022-07-10T07:25:20;3.40;;;1.05;;
21192;SDS011;10754;51.106;7.164;2022-07-10T07:27:45;3.10;;;1.25;;
21192;SDS011;10754;51.106;7.164;2022-07-10T07:30:12;3.30;;;1.15;;
21192;SDS011;10754;51.106;7.164;2022-07-10T07:32:41;5.68;;;1.35;;
21192;SDS011;10754;51.106;7.164;2022-07-10T07:35:08;3.42;;;1.23;;
21192;SDS011;10754;51.106;7.164;2022-07-10T07:37:55;2.75;;;1.13;;
21192;SDS011;10754;51.106;7.164;2022-07-10T07:40:23;6.18;;;1.70;;
21192;SDS011;10754;51.106;7.164;2022-07-10T07:42:49;4.07;;;1.40;;
21192;SDS011;10754;51.106;7.164;2022-07-10T07:45:16;4.30;;;1.40;;
21192;SDS011;10754;51.106;7.164;2022-07-10T07:50:13;5.13;;;1.58;;
21192;SDS011;10754;51.106;7.164;2022-07-10T07:52:40;4.32;;;1.52;;
21192;SDS011;10754;51.106;7.164;2022-07-10T07:55:06;2.53;;;1.10;;
21192;SDS011;10754;51.106;7.164;2022-07-10T07:57:32;3.85;;;1.23;;
21192;SDS011;10754;51.106;7.164;2022-07-10T07:59:58;4.10;;;1.10;;
21192;SDS011;10754;51.106;7.164;2022-07-10T08:02:23;3.75;;;1.40;;
21192;SDS011;10754;51.106;7.164;2022-07-10T08:04:49;3.20;;;1.17;;
21192;SDS011;10754;51.106;7.164;2022-07-10T08:07:14;5.68;;;1.40;;
21192;SDS011;10754;51.106;7.164;2022-07-10T08:09:40;5.95;;;1.30;;
21192;SDS011;10754;51.106;7.164;2022-07-10T08:12:05;3.00;;;1.20;;
21192;SDS011;10754;51.106;7.164;2022-07-10T08:14:31;3.55;;;1.30;;
21192;SDS011;10754;51.106;7.164;2022-07-10T08:16:57;2.97;;;1.13;;
21192;SDS011;10754;51.106;7.164;2022-07-10T08:19:22;2.10;;;1.15;;
21192;SDS011;10754;51.106;7.164;2022-07-10T08:21:48;4.32;;;1.30;;
21192;SDS011;10754;51.106;7.164;2022-07-10T08:24:13;2.85;;;1.02;;
21192;SDS011;10754;51.106;7.164;2022-07-10T08:26:39;3.65;;;1.20;;
21192;SDS011;10754;51.106;7.164;2022-07-10T08:29:05;3.80;;;1.10;;
21192;SDS011;10754;51.106;7.164;2022-07-10T08:31:31;5.40;;;1.40;;
21192;SDS011;10754;51.106;7.164;2022-07-10T08:33:58;2.83;;;1.60;;
21192;SDS011;10754;51.106;7.164;2022-07-10T08:36:24;3.35;;;1.50;;
21192;SDS011;10754;51.106;7.164;2022-07-10T08:38:51;2.40;;;1.20;;
21192;SDS011;10754;51.106;7.164;2022-07-10T08:41:19;5.47;;;1.63;;
21192;SDS011;10754;51.106;7.164;2022-07-10T08:43:49;3.08;;;1.50;;
21192;SDS011;10754;51.106;7.164;2022-07-10T08:46:15;3.75;;;1.70;;
21192;SDS011;10754;51.106;7.164;2022-07-10T08:48:44;3.60;;;1.58;;
21192;SDS011;10754;51.106;7.164;2022-07-10T08:51:12;2.67;;;1.23;;
21192;SDS011;10754;51.106;7.164;2022-07-10T08:53:55;4.43;;;2.15;;
21192;SDS011;10754;51.106;7.164;2022-07-10T08:56:22;2.55;;;1.73;;
21192;SDS011;10754;51.106;7.164;2022-07-10T08:58:47;4.20;;;2.03;;
21192;SDS011;10754;51.106;7.164;2022-07-10T09:01:15;2.90;;;1.73;;
21192;SDS011;10754;51.106;7.164;2022-07-10T09:03:47;3.55;;;1.95;;
21192;SDS011;10754;51.106;7.164;2022-07-10T09:06:14;3.38;;;1.95;;
21192;SDS011;10754;51.106;7.164;2022-07-10T09:08:44;3.50;;;2.00;;
21192;SDS011;10754;51.106;7.164;2022-07-10T09:11:29;4.15;;;1.85;;
21192;SDS011;10754;51.106;7.164;2022-07-10T09:13:59;5.13;;;1.90;;
21192;SDS011;10754;51.106;7.164;2022-07-10T09:16:32;3.50;;;1.45;;
21192;SDS011;10754;51.106;7.164;2022-07-10T09:19:16;4.10;;;1.65;;
21192;SDS011;10754;51.106;7.164;2022-07-10T09:21:50;3.08;;;1.70;;
21192;SDS011;10754;51.106;7.164;2022-07-10T09:24:17;2.53;;;1.40;;
21192;SDS011;10754;51.106;7.164;2022-07-10T09:26:57;4.57;;;1.52;;
21192;SDS011;10754;51.106;7.164;2022-07-10T09:29:44;2.95;;;1.42;;
21192;SDS011;10754;51.106;7.164;2022-07-10T09:32:12;2.72;;;1.20;;
21192;SDS011;10754;51.106;7.164;2022-07-10T09:34:39;2.47;;;1.17;;
21192;SDS011;10754;51.106;7.164;2022-07-10T09:37:24;2.67;;;1.20;;
21192;SDS011;10754;51.106;7.164;2022-07-10T09:47:37;4.15;;;1.33;;
21192;SDS011;10754;51.106;7.164;2022-07-10T09:50:28;2.05;;;1.20;;
21192;SDS011;10754;51.106;7.164;2022-07-10T09:53:05;1.77;;;1.40;;
21192;SDS011;10754;51.106;7.164;2022-07-10T09:55:32;2.75;;;1.52;;
21192;SDS011;10754;51.106;7.164;2022-07-10T09:58:03;2.08;;;1.70;;
21192;SDS011;10754;51.106;7.164;2022-07-10T10:00:33;4.30;;;2.15;;
21192;SDS011;10754;51.106;7.164;2022-07-10T10:03:07;3.75;;;2.10;;
21192;SDS011;10754;51.106;7.164;2022-07-10T10:05:42;2.67;;;1.80;;
21192;SDS011;10754;51.106;7.164;2022-07-10T10:11:25;3.17;;;1.90;;
21192;SDS011;10754;51.106;7.164;2022-07-10T10:13:52;3.40;;;2.05;;
21192;SDS011;10754;51.106;7.164;2022-07-10T10:16:20;4.43;;;2.22;;
21192;SDS011;10754;51.106;7.164;2022-07-10T10:18:47;3.25;;;2.15;;
21192;SDS011;10754;51.106;7.164;2022-07-10T10:21:33;3.25;;;2.70;;
21192;SDS011;10754;51.106;7.164;2022-07-10T10:24:00;4.78;;;2.80;;
21192;SDS011;10754;51.106;7.164;2022-07-10T10:26:26;3.78;;;2.42;;
21192;SDS011;10754;51.106;7.164;2022-07-10T10:28:52;3.03;;;2.60;;
21192;SDS011;10754;51.106;7.164;2022-07-10T10:31:20;4.30;;;2.75;;
21192;SDS011;10754;51.106;7.164;2022-07-10T10:33:46;4.72;;;2.53;;
21192;SDS011;10754;51.106;7.164;2022-07-10T10:36:14;2.92;;;2.58;;
21192;SDS011;10754;51.106;7.164;2022-07-10T10:39:00;4.00;;;2.95;;
21192;SDS011;10754;51.106;7.164;2022-07-10T10:41:38;3.95;;;3.00;;
21192;SDS011;10754;51.106;7.164;2022-07-10T10:49:18;3.08;;;2.70;;
21192;SDS011;10754;51.106;7.164;2022-07-10T10:52:00;5.88;;;3.20;;
21192;SDS011;10754;51.106;7.164;2022-07-10T10:59:57;4.05;;;3.70;;
21192;SDS011;10754;51.106;7.164;2022-07-10T11:04:51;4.53;;;3.80;;
21192;SDS011;10754;51.106;7.164;2022-07-10T11:08:01;4.80;;;3.72;;
21192;SDS011;10754;51.106;7.164;2022-07-10T11:10:32;4.80;;;3.40;;
21192;SDS011;10754;51.106;7.164;2022-07-10T11:15:30;7.78;;;3.30;;
21192;SDS011;10754;51.106;7.164;2022-07-10T11:18:03;4.95;;;2.58;;
21192;SDS011;10754;51.106;7.164;2022-07-10T11:20:33;4.18;;;2.50;;
21192;SDS011;10754;51.106;7.164;2022-07-10T11:28:38;4.13;;;1.80;;
21192;SDS011;10754;51.106;7.164;2022-07-10T11:31:14;3.67;;;1.77;;
21192;SDS011;10754;51.106;7.164;2022-07-10T11:33:40;2.97;;;1.63;;
21192;SDS011;10754;51.106;7.164;2022-07-10T11:36:11;4.30;;;1.73;;
21192;SDS011;10754;51.106;7.164;2022-07-10T11:38:42;2.75;;;1.60;;
21192;SDS011;10754;51.106;7.164;2022-07-10T11:41:18;3.08;;;1.35;;
21192;SDS011;10754;51.106;7.164;2022-07-10T11:43:55;2.92;;;1.45;;
21192;SDS011;10754;51.106;7.164;2022-07-10T11:46:29;2.67;;;1.10;;
21192;SDS011;10754;51.106;7.164;2022-07-10T11:48:55;2.10;;;1.00;;
21192;SDS011;10754;51.106;7.164;2022-07-10T11:51:26;2.17;;;0.90;;
21192;SDS011;10754;51.106;7.164;2022-07-10T11:53:54;2.33;;;0.80;;
21192;SDS011;10754;51.106;7.164;2022-07-10T11:56:24;2.00;;;0.90;;
21192;SDS011;10754;51.106;7.164;2022-07-10T11:59:00;2.47;;;1.10;;
21192;SDS011;10754;51.106;7.164;2022-07-10T12:01:28;2.33;;;0.90;;
21192;SDS011;10754;51.106;7.164;2022-07-10T12:03:55;4.00;;;1.27;;
21192;SDS011;10754;51.106;7.164;2022-07-10T12:06:21;2.10;;;1.08;;
21192;SDS011;10754;51.106;7.164;2022-07-10T12:08:48;2.30;;;0.95;;
21192;SDS011;10754;51.106;7.164;2022-07-10T12:11:15;3.35;;;1.17;;
21192;SDS011;10754;51.106;7.164;2022-07-10T12:13:42;2.13;;;1.10;;
21192;SDS011;10754;51.106;7.164;2022-07-10T12:16:08;2.58;;;1.38;;
21192;SDS011;10754;51.106;7.164;2022-07-10T12:18:34;2.78;;;1.27;;
21192;SDS011;10754;51.106;7.164;2022-07-10T12:20:59;1.75;;;1.40;;
21192;SDS011;10754;51.106;7.164;2022-07-10T12:23:26;1.85;;;1.33;;
21192;SDS011;10754;51.106;7.164;2022-07-10T12:25:53;2.58;;;1.10;;
21192;SDS011;10754;51.106;7.164;2022-07-10T12:28:21;2.05;;;1.27;;
21192;SDS011;10754;51.106;7.164;2022-07-10T12:30:47;2.95;;;1.40;;
21192;SDS011;10754;51.106;7.164;2022-07-10T12:33:18;1.58;;;1.48;;
21192;SDS011;10754;51.106;7.164;2022-07-10T12:38:30;1.63;;;1.40;;
21192;SDS011;10754;51.106;7.164;2022-07-10T12:41:06;2.50;;;1.20;;
21192;SDS011;10754;51.106;7.164;2022-07-10T12:43:34;2.30;;;1.63;;
21192;SDS011;10754;51.106;7.164;2022-07-10T12:46:10;1.40;;;1.20;;
21192;SDS011;10754;51.106;7.164;2022-07-10T12:48:41;1.58;;;1.20;;
21192;SDS011;10754;51.106;7.164;2022-07-10T12:51:28;1.60;;;1.40;;
21192;SDS011;10754;51.106;7.164;2022-07-10T12:53:55;1.67;;;1.23;;
21192;SDS011;10754;51.106;7.164;2022-07-10T12:59:03;1.90;;;1.48;;
21192;SDS011;10754;51.106;7.164;2022-07-10T13:01:42;1.42;;;1.33;;
21192;SDS011;10754;51.106;7.164;2022-07-10T13:04:09;1.80;;;1.70;;
21192;SDS011;10754;51.106;7.164;2022-07-10T13:06:35;1.60;;;1.48;;
21192;SDS011;10754;51.106;7.164;2022-07-10T13:09:03;1.58;;;1.40;;
21192;SDS011;10754;51.106;7.164;2022-07-10T13:11:46;3.28;;;1.70;;
21192;SDS011;10754;51.106;7.164;2022-07-10T13:14:12;2.05;;;1.50;;
21192;SDS011;10754;51.106;7.164;2022-07-10T13:16:38;3.53;;;1.80;;
21192;SDS011;10754;51.106;7.164;2022-07-10T13:19:03;4.55;;;1.80;;
21192;SDS011;10754;51.106;7.164;2022-07-10T13:21:29;2.22;;;1.83;;
21192;SDS011;10754;51.106;7.164;2022-07-10T13:23:55;2.20;;;1.85;;
21192;SDS011;10754;51.106;7.164;2022-07-10T13:26:20;2.67;;;1.67;;
21192;SDS011;10754;51.106;7.164;2022-07-10T13:28:46;2.70;;;1.55;;
21192;SDS011;10754;51.106;7.164;2022-07-10T13:31:11;3.85;;;1.85;;
21192;SDS011;10754;51.106;7.164;2022-07-10T13:33:37;2.28;;;1.50;;
21192;SDS011;10754;51.106;7.164;2022-07-10T13:36:03;3.38;;;1.50;;
21192;SDS011;10754;51.106;7.164;2022-07-10T13:38:29;3.85;;;1.75;;
21192;SDS011;10754;51.106;7.164;2022-07-10T13:40:56;3.47;;;1.40;;
21192;SDS011;10754;51.106;7.164;2022-07-10T13:43:22;2.90;;;1.73;;
21192;SDS011;10754;51.106;7.164;2022-07-10T13:45:53;5.10;;;1.80;;
21192;SDS011;10754;51.106;7.164;2022-07-10T13:48:21;3.72;;;1.88;;
21192;SDS011;10754;51.106;7.164;2022-07-10T13:50:46;1.83;;;1.40;;
21192;SDS011;10754;51.106;7.164;2022-07-10T13:53:12;3.55;;;1.95;;
21192;SDS011;10754;51.106;7.164;2022-07-10T13:55:38;4.25;;;1.83;;
21192;SDS011;10754;51.106;7.164;2022-07-10T13:58:04;3.42;;;2.15;;
21192;SDS011;10754;51.106;7.164;2022-07-10T14:00:29;4.45;;;2.13;;
21192;SDS011;10754;51.106;7.164;2022-07-10T14:02:55;3.10;;;2.00;;
21192;SDS011;10754;51.106;7.164;2022-07-10T14:05:22;4.85;;;1.60;;
21192;SDS011;10754;51.106;7.164;2022-07-10T14:07:49;3.08;;;1.90;;
21192;SDS011;10754;51.106;7.164;2022-07-10T14:10:14;3.38;;;2.05;;
21192;SDS011;10754;51.106;7.164;2022-07-10T14:12:40;2.60;;;1.67;;
21192;SDS011;10754;51.106;7.164;2022-07-10T14:15:06;2.42;;;1.67;;
21192;SDS011;10754;51.106;7.164;2022-07-10T14:17:32;3.95;;;1.67;;
21192;SDS011;10754;51.106;7.164;2022-07-10T14:19:58;2.00;;;1.80;;
21192;SDS011;10754;51.106;7.164;2022-07-10T14:22:23;3.55;;;1.98;;
21192;SDS011;10754;51.106;7.164;2022-07-10T14:24:49;3.88;;;2.05;;
21192;SDS011;10754;51.106;7.164;2022-07-10T14:27:16;5.88;;;2.60;;
21192;SDS011;10754;51.106;7.164;2022-07-10T14:29:42;4.40;;;2.10;;
21192;SDS011;10754;51.106;7.164;2022-07-10T14:32:07;2.75;;;1.88;;
21192;SDS011;10754;51.106;7.164;2022-07-10T14:34:33;4.28;;;2.13;;
21192;SDS011;10754;51.106;7.164;2022-07-10T14:36:58;3.67;;;2.03;;
21192;SDS011;10754;51.106;7.164;2022-07-10T14:39:24;2.35;;;1.65;;
21192;SDS011;10754;51.106;7.164;2022-07-10T14:41:49;3.47;;;1.80;;
21192;SDS011;10754;51.106;7.164;2022-07-10T14:44:15;2.55;;;1.83;;
21192;SDS011;10754;51.106;7.164;2022-07-10T14:46:40;4.70;;;1.90;;
21192;SDS011;10754;51.106;7.164;2022-07-10T14:49:07;4.00;;;1.83;;
21192;SDS011;10754;51.106;7.164;2022-07-10T14:51:33;2.25;;;1.80;;
21192;SDS011;10754;51.106;7.164;2022-07-10T14:54:00;3.15;;;2.00;;
21192;SDS011;10754;51.106;7.164;2022-07-10T14:56:26;4.90;;;2.25;;
21192;SDS011;10754;51.106;7.164;2022-07-10T14:58:51;2.50;;;1.80;;
21192;SDS011;10754;51.106;7.164;2022-07-10T15:01:17;3.53;;;1.70;;
21192;SDS011;10754;51.106;7.164;2022-07-10T15:03:43;3.58;;;1.52;;
21192;SDS011;10754;51.106;7.164;2022-07-10T15:06:08;2.53;;;1.70;;
21192;SDS011;10754;51.106;7.164;2022-07-10T15:08:34;4.47;;;1.98;;
21192;SDS011;10754;51.106;7.164;2022-07-10T15:11:00;2.25;;;1.50;;
21192;SDS011;10754;51.106;7.164;2022-07-10T15:13:26;3.20;;;1.52;;
21192;SDS011;10754;51.106;7.164;2022-07-10T15:15:52;3.00;;;1.48;;
21192;SDS011;10754;51.106;7.164;2022-07-10T15:18:18;2.72;;;1.50;;
21192;SDS011;10754;51.106;7.164;2022-07-10T15:20:44;3.80;;;1.60;;
21192;SDS011;10754;51.106;7.164;2022-07-10T15:23:10;2.75;;;1.35;;
21192;SDS011;10754;51.106;7.164;2022-07-10T15:25:36;2.47;;;1.30;;
21192;SDS011;10754;51.106;7.164;2022-07-10T15:28:05;3.00;;;1.55;;
21192;SDS011;10754;51.106;7.164;2022-07-10T15:30:32;2.35;;;1.30;;